Aviation Digital Data Service (ADDS)

Output produced by METARs form (0634 UTC 27 March 2017)
found at http://www.aviationweather.gov/adds/metars/
 
GVAC 270600Z 04013KT 9999 SCT014 20/16 Q1015 NOSIG
TAF GVAC 270500Z 2706/2812 04012KT 9999 BKN014 
     TEMPO 2712/2718 05018KT
       
TAF GVBA 262300Z 2700/2806 03010KT 9999 SCT015 
     PROB30 
     TEMPO 2712/2718 03020KT
       
GVSV 270600Z 07016KT 9999 SCT020 21/16 Q1016 NOSIG
TAF GVSV 270500Z 2706/2812 06020KT 9999 FEW020 
     TEMPO 2708/2714 06018G30KT 
     BECMG 2715/2717 06025KT